Time;durP1;ratioP1;P1;durP2;ratioP2;P2;SDS_P1;SDS_P2;PMS_P1;PMS_P2;Temp;Humidity;BMP_temperature;BMP_pressure;BME280_temperature;BME280_humidity;BME280_pressure;Samples;Min_cycle;Max_cycle;Signal;HPM_P1;HPM_P2
2022/12/04 00:01:05;;;;;;;8.00;4.60;;;;;;;3.14;100.00;100170.66;5031786;28;20928;-53
2022/12/04 00:03:32;;;;;;;4.63;4.03;;;;;;;3.03;100.00;100171.56;5031556;28;20459;-53
2022/12/04 00:06:11;;;;;;;5.97;2.93;;;;;;;3.11;100.00;100178.56;5031346;28;20493;-53
2022/12/04 00:08:38;;;;;;;2.83;2.50;;;;;;;3.07;100.00;100176.81;5031727;28;20448;-54
2022/12/04 00:11:07;;;;;;;3.33;2.37;;;;;;;3.30;100.00;100182.06;5031635;28;21022;-53
2022/12/04 00:13:34;;;;;;;1.80;1.70;;;;;;;3.21;100.00;100176.81;5031444;28;20529;-53
2022/12/04 00:16:02;;;;;;;7.80;3.40;;;;;;;3.03;100.00;100182.06;5030073;28;20892;-53
2022/12/04 00:18:28;;;;;;;1.10;1.10;;;;;;;3.02;100.00;100183.81;5031810;28;20531;-53
2022/12/04 00:20:54;;;;;;;3.57;2.33;;;;;;;3.01;100.00;100183.78;5031336;28;20452;-53
2022/12/04 00:23:21;;;;;;;1.37;1.37;;;;;;;3.02;100.00;100175.94;5031491;28;20452;-53
2022/12/04 00:25:47;;;;;;;1.60;1.60;;;;;;;2.89;100.00;100177.69;5031103;28;20471;-53
2022/12/04 00:28:16;;;;;;;1.87;1.77;;;;;;;2.90;100.00;100182.06;5031701;28;20478;-53
2022/12/04 00:30:44;;;;;;;6.00;3.93;;;;;;;2.89;100.00;100177.69;5031394;28;20491;-53
2022/12/04 00:33:11;;;;;;;7.43;2.90;;;;;;;2.98;100.00;100182.91;5031339;28;20831;-53
2022/12/04 00:35:38;;;;;;;5.57;2.90;;;;;;;3.01;100.00;100181.16;5029740;28;20480;-53
2022/12/04 00:38:04;;;;;;;3.20;3.00;;;;;;;3.07;100.00;100179.44;5031669;28;20456;-53
2022/12/04 00:40:31;;;;;;;5.60;2.30;;;;;;;2.90;100.00;100178.56;5031186;28;20448;-53
2022/12/04 00:42:57;;;;;;;5.10;3.37;;;;;;;2.73;100.00;100189.03;5031205;28;20452;-53
2022/12/04 00:45:24;;;;;;;5.93;1.60;;;;;;;2.71;100.00;100184.66;5030851;28;20985;-53
2022/12/04 00:47:50;;;;;;;1.77;0.90;;;;;;;2.80;100.00;100190.78;5031053;28;20554;-53
2022/12/04 00:50:16;;;;;;;0.93;0.93;;;;;;;2.83;100.00;100182.03;5031122;28;20962;-53
2022/12/04 00:52:43;;;;;;;5.07;2.83;;;;;;;2.94;100.00;100181.19;5031385;28;20462;-53
2022/12/04 00:55:09;;;;;;;9.67;4.37;;;;;;;2.87;100.00;100183.78;5030883;28;20472;-53
2022/12/04 00:57:36;;;;;;;3.03;2.93;;;;;;;2.81;100.00;100175.94;5030998;28;20464;-53
2022/12/04 01:00:03;;;;;;;2.73;2.53;;;;;;;2.79;100.00;100180.31;5031373;28;20456;-53
2022/12/04 01:02:30;;;;;;;5.97;2.97;;;;;;;2.78;100.00;100170.69;5030647;28;20455;-53
2022/12/04 01:04:56;;;;;;;1.60;1.50;;;;;;;2.93;100.00;100170.69;5030576;28;20940;-53
2022/12/04 01:07:23;;;;;;;1.10;1.10;;;;;;;2.90;100.00;100162.81;5030564;28;20483;-53
2022/12/04 01:09:49;;;;;;;2.60;2.03;;;;;;;2.83;100.00;100168.91;5030568;28;20440;-53
2022/12/04 01:12:16;;;;;;;3.40;3.20;;;;;;;2.78;100.00;100166.31;5030600;28;20499;-52
2022/12/04 01:14:46;;;;;;;2.53;2.17;;;;;;;2.73;100.00;100160.16;5030256;28;21009;-52
2022/12/04 01:17:13;;;;;;;3.83;3.60;;;;;;;2.91;100.00;100154.06;5030276;28;20463;-53
2022/12/04 01:19:39;;;;;;;2.53;2.40;;;;;;;2.68;100.00;100156.66;5030320;28;20501;-52
2022/12/04 01:22:05;;;;;;;1.50;1.40;;;;;;;2.60;100.00;100154.06;5029788;28;20458;-52
2022/12/04 01:24:32;;;;;;;1.77;1.70;;;;;;;2.87;100.00;100149.66;5030344;28;20464;-53
2022/12/04 01:26:58;;;;;;;3.43;2.50;;;;;;;2.84;100.00;100150.53;5030261;28;20486;-53
2022/12/04 01:29:25;;;;;;;1.73;1.63;;;;;;;2.77;100.00;100138.31;5030384;28;20456;-53
2022/12/04 01:31:51;;;;;;;3.30;1.80;;;;;;;2.75;100.00;100153.19;5030219;28;20499;-53
2022/12/04 01:34:18;;;;;;;4.57;3.40;;;;;;;2.75;100.00;100155.81;5030120;28;20452;-53
2022/12/04 01:36:44;;;;;;;4.93;2.70;;;;;;;2.81;100.00;100149.69;5029976;28;20501;-53
2022/12/04 01:39:11;;;;;;;5.20;2.60;;;;;;;3.03;100.00;100140.06;5030491;28;20458;-53
2022/12/04 01:41:37;;;;;;;5.10;1.87;;;;;;;2.91;100.00;100141.81;5030370;28;20855;-53
2022/12/04 01:44:09;;;;;;;1.33;0.90;;;;;;;2.93;100.00;100141.81;5029864;28;20452;-53
2022/12/04 01:46:37;;;;;;;2.87;2.67;;;;;;;2.71;100.00;100156.66;5029476;28;20991;-52
2022/12/04 01:49:07;;;;;;;1.43;1.33;;;;;;;2.80;100.00;100156.69;5029272;28;21126;-53
2022/12/04 01:51:38;;;;;;;0.90;0.90;;;;;;;2.75;100.00;100160.19;5029767;28;20483;-53
2022/12/04 01:54:10;;;;;;;2.63;2.40;;;;;;;2.76;100.00;100172.44;5030088;28;20452;-53
2022/12/04 01:56:46;;;;;;;3.10;2.20;;;;;;;2.83;100.00;100167.16;5029854;28;20482;-53
2022/12/04 01:59:16;;;;;;;2.80;1.67;;;;;;;2.78;100.00;100168.06;5029575;28;20447;-53
2022/12/04 02:01:51;;;;;;;2.43;2.30;;;;;;;2.89;100.00;100172.44;5029764;28;21265;-53
2022/12/04 02:04:18;;;;;;;1.50;1.40;;;;;;;2.73;100.00;100169.78;5017659;28;20447;-52
2022/12/04 02:06:44;;;;;;;3.30;2.87;;;;;;;2.71;100.00;100177.66;5029421;28;21064;-53
2022/12/04 02:09:11;;;;;;;0.90;0.90;;;;;;;2.73;100.00;100175.91;5029757;28;20455;-52
2022/12/04 02:11:45;;;;;;;2.10;1.50;;;;;;;2.66;100.00;100182.91;5029434;28;20517;-53
2022/12/04 02:14:24;;;;;;;0.93;0.93;;;;;;;2.72;100.00;100174.16;5029278;28;20452;-53
2022/12/04 02:16:53;;;;;;;2.60;2.40;;;;;;;2.72;100.00;100168.91;5028818;28;20483;-53
2022/12/04 02:19:39;;;;;;;2.43;2.33;;;;;;;2.73;100.00;100168.03;5029601;28;20456;-53
2022/12/04 02:22:20;;;;;;;1.97;1.87;;;;;;;2.71;100.00;100167.16;5029943;28;20448;-53
2022/12/04 02:24:56;;;;;;;1.93;1.10;;;;;;;2.70;100.00;100175.03;5029193;28;20444;-53
2022/12/04 02:27:40;;;;;;;1.03;1.03;;;;;;;2.75;100.00;100160.19;5019406;28;20937;-53
2022/12/04 02:30:13;;;;;;;2.77;2.53;;;;;;;3.03;100.00;100167.19;5029749;28;20451;-52
2022/12/04 02:32:47;;;;;;;3.03;2.83;;;;;;;2.89;100.00;100164.56;5029726;28;20491;-53
2022/12/04 02:35:16;;;;;;;3.03;2.70;;;;;;;2.82;100.00;100164.53;5016815;28;20494;-53
2022/12/04 02:37:47;;;;;;;3.23;3.07;;;;;;;2.80;100.00;100163.69;5030033;28;20518;-52
2022/12/04 02:40:24;;;;;;;2.27;1.80;;;;;;;2.74;100.00;100163.66;5029364;28;20448;-53
2022/12/04 02:43:04;;;;;;;1.60;1.50;;;;;;;2.76;100.00;100169.81;5029301;28;20631;-52
2022/12/04 02:45:38;;;;;;;1.77;1.37;;;;;;;2.81;100.00;100160.19;5028873;28;20467;-53
2022/12/04 02:48:06;;;;;;;2.97;2.30;;;;;;;2.83;100.00;100164.53;5029582;28;20795;-53
2022/12/04 02:50:38;;;;;;;2.40;2.20;;;;;;;2.76;100.00;100157.56;5027970;28;20483;-53
2022/12/04 02:53:11;;;;;;;5.67;1.73;;;;;;;2.72;100.00;100154.91;5029111;28;20452;-53
2022/12/04 02:55:42;;;;;;;2.10;2.00;;;;;;;2.70;100.00;100160.16;5029067;28;20557;-53
2022/12/04 02:58:15;;;;;;;1.73;1.73;;;;;;;2.70;100.00;100157.53;5029006;28;20454;-53
2022/12/04 03:00:45;;;;;;;2.80;2.23;;;;;;;2.67;100.00;100149.66;5033453;28;20447;-53
2022/12/04 03:03:19;;;;;;;17.27;2.00;;;;;;;2.60;100.00;100148.81;5033790;28;20448;-53
2022/12/04 03:05:53;;;;;;;1.40;1.30;;;;;;;2.79;100.00;100143.56;5033350;28;20476;-53
2022/12/04 03:08:25;;;;;;;9.43;4.20;;;;;;;2.73;100.00;100144.41;5032689;28;20486;-53
2022/12/04 03:10:56;;;;;;;1.63;1.53;;;;;;;2.69;100.00;100153.16;5032707;28;20490;-52
2022/12/04 03:13:25;;;;;;;4.37;1.53;;;;;;;2.74;100.00;100150.53;5033067;28;20447;-52
2022/12/04 03:16:00;;;;;;;1.73;1.47;;;;;;;2.84;100.00;100149.66;5032931;28;20479;-54
2022/12/04 03:18:50;;;;;;;12.10;4.00;;;;;;;2.92;100.00;100161.06;5033104;28;20451;-54
2022/12/04 03:21:22;;;;;;;0.80;0.53;;;;;;;2.92;100.00;100138.31;5032992;28;20463;-54
2022/12/04 03:23:55;;;;;;;1.63;1.17;;;;;;;3.04;100.00;100141.81;5033153;28;20936;-54
2022/12/04 03:26:31;;;;;;;2.53;2.43;;;;;;;3.02;100.00;100138.31;5033470;28;20466;-54
2022/12/04 03:29:05;;;;;;;1.20;1.10;;;;;;;2.86;100.00;100135.66;5033463;28;20459;-54
2022/12/04 03:31:46;;;;;;;1.30;1.20;;;;;;;2.84;100.00;100131.31;5033255;28;20861;-54
2022/12/04 03:34:16;;;;;;;6.40;1.00;;;;;;;2.77;100.00;100140.06;5033052;28;20474;-54
2022/12/04 03:36:54;;;;;;;2.43;1.70;;;;;;;2.80;100.00;100130.44;5032476;28;20483;-54
2022/12/04 03:39:29;;;;;;;5.10;1.33;;;;;;;2.85;100.00;100133.03;5032874;28;20503;-53
2022/12/04 03:41:58;;;;;;;2.70;1.60;;;;;;;2.98;100.00;100126.91;5032780;28;20939;-55
2022/12/04 03:44:38;;;;;;;5.20;2.20;;;;;;;3.03;100.00;100132.19;5033118;28;20513;-54
2022/12/04 03:47:35;;;;;;;2.63;2.30;;;;;;;2.82;100.00;100139.19;5032571;28;20471;-54
2022/12/04 03:50:12;;;;;;;1.70;1.60;;;;;;;2.91;100.00;100136.56;5019809;28;20818;-54
2022/12/04 03:53:05;;;;;;;2.60;2.23;;;;;;;2.88;100.00;100141.81;5032208;28;20944;-53
2022/12/04 03:55:45;;;;;;;6.47;3.10;;;;;;;2.96;100.00;100133.94;5032271;28;20475;-53
2022/12/04 03:58:17;;;;;;;5.40;1.87;;;;;;;2.77;100.00;100137.44;5032156;28;20452;-54
2022/12/04 04:00:46;;;;;;;2.30;2.20;;;;;;;2.71;100.00;100138.28;5031930;28;20447;-53
2022/12/04 04:03:27;;;;;;;7.93;1.90;;;;;;;2.82;100.00;100144.44;5032407;28;20832;-53
2022/12/04 04:06:00;;;;;;;2.90;2.70;;;;;;;3.06;100.00;100132.19;5032541;28;20489;-53
2022/12/04 04:08:33;;;;;;;2.00;1.90;;;;;;;2.92;100.00;100143.56;5032206;28;20451;-53
2022/12/04 04:11:10;;;;;;;1.97;1.87;;;;;;;3.01;100.00;100141.78;5031781;28;20458;-54
2022/12/04 04:25:08;;;;;;;4.10;0.80;;;;;;;2.98;100.00;100133.03;5032274;28;20448;-53
2022/12/04 04:27:35;;;;;;;0.90;0.90;;;;;;;2.77;100.00;100132.19;5031607;28;20451;-53
2022/12/04 04:30:01;;;;;;;2.83;1.60;;;;;;;2.90;100.00;100132.19;5031602;28;20462;-54
2022/12/04 04:32:44;;;;;;;3.50;3.30;;;;;;;2.76;100.00;100139.19;5031706;28;20552;-53
2022/12/04 04:35:24;;;;;;;2.40;2.00;;;;;;;2.95;100.00;100135.69;5021927;28;20482;-53
2022/12/04 04:38:00;;;;;;;0.87;0.87;;;;;;;2.98;100.00;100129.53;5031963;28;20458;-53
2022/12/04 04:40:40;;;;;;;2.13;2.03;;;;;;;2.98;100.00;100126.91;5032133;28;20444;-53
2022/12/04 04:43:17;;;;;;;1.80;1.70;;;;;;;3.00;100.00;100124.28;5019452;28;20459;-53
2022/12/04 04:45:45;;;;;;;1.10;0.70;;;;;;;2.82;100.00;100141.81;5031571;28;20475;-53
2022/12/04 04:48:19;;;;;;;3.23;1.53;;;;;;;3.05;100.00;100130.44;5031154;28;20456;-53
2022/12/04 04:50:46;;;;;;;4.50;2.00;;;;;;;2.98;100.00;100129.53;5031989;28;20448;-53
2022/12/04 04:53:19;;;;;;;4.37;4.07;;;;;;;2.94;100.00;100120.81;5031758;28;20496;-53
2022/12/04 04:55:46;;;;;;;1.43;1.30;;;;;;;2.92;100.00;100119.94;5031638;28;20943;-54
2022/12/04 04:58:15;;;;;;;1.43;1.33;;;;;;;3.01;100.00;100118.16;5031368;28;20458;-53
2022/12/04 05:00:54;;;;;;;4.60;4.30;;;;;;;2.94;100.00;100115.56;5030503;28;21249;-54
2022/12/04 05:03:20;;;;;;;7.23;1.07;;;;;;;2.81;100.00;100112.94;5031240;28;20939;-53
2022/12/04 05:05:46;;;;;;;2.97;1.97;;;;;;;2.61;100.00;100119.06;5031143;28;20478;-54
2022/12/04 05:08:13;;;;;;;1.40;1.23;;;;;;;2.73;100.00;100119.91;5030697;28;20452;-53
2022/12/04 05:10:39;;;;;;;2.90;1.57;;;;;;;2.89;100.00;100124.31;5031327;28;20456;-53
2022/12/04 05:13:06;;;;;;;4.23;3.83;;;;;;;2.96;100.00;100133.94;5031239;28;20565;-53
2022/12/04 05:15:32;;;;;;;2.13;2.03;;;;;;;2.77;100.00;100132.19;5030315;28;20488;-53
2022/12/04 05:17:59;;;;;;;1.90;1.80;;;;;;;2.84;100.00;100131.31;5030706;28;20873;-53
2022/12/04 05:20:25;;;;;;;1.60;1.50;;;;;;;2.71;100.00;100133.03;5030814;28;20456;-53
2022/12/04 05:22:51;;;;;;;4.80;3.33;;;;;;;2.80;100.00;100133.06;5029257;28;20501;-53
2022/12/04 05:25:18;;;;;;;3.60;2.30;;;;;;;2.84;100.00;100121.69;5031160;28;20549;-53
2022/12/04 05:27:44;;;;;;;1.20;1.13;;;;;;;3.00;100.00;100126.91;5030797;28;20466;-54
2022/12/04 05:30:11;;;;;;;1.00;1.00;;;;;;;2.85;100.00;100138.28;5030809;28;20456;-53
2022/12/04 05:32:38;;;;;;;0.77;0.77;;;;;;;2.78;100.00;100136.56;5030065;28;20687;-53
2022/12/04 05:35:04;;;;;;;4.27;1.83;;;;;;;2.74;100.00;100145.28;5017539;28;20491;-54
2022/12/04 05:37:38;;;;;;;2.77;2.43;;;;;;;2.77;100.00;100146.19;5029277;28;20467;-53
2022/12/04 05:40:06;;;;;;;2.50;2.30;;;;;;;2.84;100.00;100147.91;5030294;28;20452;-53
2022/12/04 05:42:33;;;;;;;4.43;2.20;;;;;;;2.70;100.00;100141.78;5030151;28;20836;-53
2022/12/04 05:45:00;;;;;;;0.93;0.93;;;;;;;2.82;100.00;100148.81;5029663;28;20462;-53
2022/12/04 05:47:26;;;;;;;2.27;2.13;;;;;;;2.77;100.00;100147.94;5030056;28;20456;-53
2022/12/04 05:49:52;;;;;;;6.43;2.00;;;;;;;2.66;100.00;100155.78;5030308;28;20533;-53
2022/12/04 05:52:19;;;;;;;1.70;1.60;;;;;;;2.78;100.00;100149.69;5030128;28;20495;-52
2022/12/04 05:54:46;;;;;;;2.37;2.27;;;;;;;3.00;100.00;100147.91;5029968;28;20883;-53
2022/12/04 05:57:12;;;;;;;2.53;2.27;;;;;;;2.78;100.00;100161.06;5030140;28;20807;-53
2022/12/04 05:59:39;;;;;;;2.40;2.20;;;;;;;2.85;100.00;100156.66;5029892;28;20451;-53
2022/12/04 06:02:05;;;;;;;4.77;2.67;;;;;;;2.79;100.00;100156.69;5030311;28;20455;-53
2022/12/04 06:04:32;;;;;;;0.93;0.60;;;;;;;2.80;100.00;100151.44;5030314;28;20460;-53
2022/12/04 06:06:58;;;;;;;0.83;0.83;;;;;;;2.89;100.00;100151.44;5029912;28;20522;-53
2022/12/04 06:09:24;;;;;;;1.73;1.43;;;;;;;2.80;100.00;100148.81;5030073;28;20953;-53
2022/12/04 06:11:51;;;;;;;1.80;1.60;;;;;;;2.75;100.00;100145.31;5029568;28;20867;-53
2022/12/04 06:14:17;;;;;;;2.23;2.07;;;;;;;2.91;100.00;100151.44;5030138;28;20456;-53
2022/12/04 06:16:45;;;;;;;5.53;5.23;;;;;;;2.98;100.00;100154.03;5026353;28;20483;-53
2022/12/04 06:19:17;;;;;;;3.20;3.10;;;;;;;2.87;100.00;100157.53;5029179;28;20462;-53
2022/12/04 06:21:47;;;;;;;4.83;2.23;;;;;;;2.77;100.00;100163.69;5029434;28;20443;-53
2022/12/04 06:24:17;;;;;;;0.83;0.83;;;;;;;2.91;100.00;100152.31;5028916;28;20513;-53
2022/12/04 06:26:44;;;;;;;3.57;3.30;;;;;;;3.09;100.00;100151.44;5029239;28;20487;-54
2022/12/04 06:29:30;;;;;;;1.40;1.37;;;;;;;3.04;100.00;100155.81;5025268;28;20876;-54
2022/12/04 06:31:57;;;;;;;1.27;1.20;;;;;;;3.07;100.00;100153.19;5029282;28;20494;-54
2022/12/04 06:34:24;;;;;;;3.37;3.07;;;;;;;2.98;100.00;100155.78;5029493;28;20505;-54
2022/12/04 06:36:50;;;;;;;0.83;0.83;;;;;;;3.01;100.00;100158.41;5029341;28;20480;-54
2022/12/04 06:39:16;;;;;;;5.20;1.70;;;;;;;3.14;100.00;100149.66;5029114;28;20475;-55
2022/12/04 06:41:46;;;;;;;2.43;2.27;;;;;;;3.02;100.00;100154.94;5029467;28;20498;-55
2022/12/04 06:44:14;;;;;;;0.93;0.93;;;;;;;2.88;100.00;100156.69;5029613;28;20459;-54
2022/12/04 06:46:40;;;;;;;4.10;2.60;;;;;;;3.00;100.00;100155.78;5029033;28;20479;-54
2022/12/04 06:49:12;;;;;;;14.50;3.37;;;;;;;3.10;100.00;100150.53;5029081;28;20448;-54
2022/12/04 06:51:39;;;;;;;3.80;2.20;;;;;;;2.85;100.00;100160.16;5029046;28;20498;-54
2022/12/04 06:54:06;;;;;;;2.10;2.00;;;;;;;2.83;100.00;100147.94;5029125;28;20462;-54
2022/12/04 06:56:33;;;;;;;1.87;1.73;;;;;;;2.85;100.00;100148.78;5029265;28;20482;-54
2022/12/04 06:59:01;;;;;;;1.70;1.60;;;;;;;2.89;100.00;100148.81;5029422;28;20459;-54
2022/12/04 07:01:30;;;;;;;3.33;1.20;;;;;;;2.90;100.00;100144.44;5029183;28;20451;-54
2022/12/04 07:03:59;;;;;;;3.30;1.10;;;;;;;2.89;100.00;100142.69;5029213;28;20828;-54
2022/12/04 07:06:28;;;;;;;1.63;1.53;;;;;;;2.95;100.00;100137.44;5028773;28;20869;-54
2022/12/04 07:09:12;;;;;;;0.70;0.70;;;;;;;2.88;100.00;100151.44;5027525;28;20457;-54
2022/12/04 07:11:40;;;;;;;5.90;2.10;;;;;;;2.95;100.00;100148.81;5026488;28;20807;-54
2022/12/04 07:14:07;;;;;;;2.77;2.57;;;;;;;3.03;100.00;100135.69;5028360;28;20534;-54
2022/12/04 07:16:33;;;;;;;1.67;1.37;;;;;;;2.85;100.00;100148.78;5027118;28;20482;-54
2022/12/04 07:19:10;;;;;;;4.43;1.27;;;;;;;2.81;100.00;100152.31;5029026;28;20470;-54
2022/12/04 07:21:38;;;;;;;19.03;1.57;;;;;;;2.96;100.00;100141.81;5028267;28;20563;-54
2022/12/04 07:24:04;;;;;;;1.43;1.33;;;;;;;3.02;100.00;100133.94;5028615;28;20956;-54
2022/12/04 07:26:31;;;;;;;7.03;2.50;;;;;;;2.99;100.00;100133.91;5028629;28;20578;-54
2022/12/04 07:28:58;;;;;;;0.80;0.80;;;;;;;3.02;100.00;100135.69;5028339;28;20456;-54
2022/12/04 07:31:26;;;;;;;2.27;1.97;;;;;;;3.09;100.00;100135.66;5028591;28;20452;-54
2022/12/04 07:33:54;;;;;;;2.07;0.90;;;;;;;3.10;100.00;100136.53;5028464;28;20498;-54
2022/12/04 07:36:22;;;;;;;2.77;2.17;;;;;;;3.04;100.00;100131.31;5028319;28;20869;-54
2022/12/04 07:38:49;;;;;;;1.77;1.70;;;;;;;2.92;100.00;100133.06;5028035;28;20452;-54
2022/12/04 07:41:16;;;;;;;3.80;2.03;;;;;;;2.91;100.00;100133.94;5028859;28;20451;-54
2022/12/04 07:43:43;;;;;;;3.87;3.47;;;;;;;2.94;100.00;100133.94;5028918;28;20451;-56
2022/12/04 07:46:16;;;;;;;3.50;3.30;;;;;;;3.12;100.00;100137.41;5030880;28;20483;-56
2022/12/04 07:48:43;;;;;;;2.63;2.53;;;;;;;3.20;100.00;100136.53;5031410;28;20509;-56
2022/12/04 07:51:16;;;;;;;3.63;1.73;;;;;;;3.21;100.00;100138.28;5032089;28;20462;-56
2022/12/04 07:53:43;;;;;;;5.97;2.93;;;;;;;3.16;100.00;100140.06;5031534;28;20844;-56
2022/12/04 07:56:11;;;;;;;1.33;1.33;;;;;;;3.22;100.00;100139.16;5032010;28;20479;-56
2022/12/04 07:58:38;;;;;;;5.43;4.10;;;;;;;3.01;100.00;100139.16;5032008;28;20486;-56
2022/12/04 08:01:09;;;;;;;3.60;1.77;;;;;;;2.98;100.00;100143.53;5031407;28;20458;-56
2022/12/04 08:03:37;;;;;;;1.80;1.70;;;;;;;2.87;100.00;100147.91;5032277;28;20956;-56
2022/12/04 08:06:12;;;;;;;3.00;2.80;;;;;;;2.84;100.00;100147.03;5031662;28;20475;-56
2022/12/04 08:08:38;;;;;;;1.23;1.23;;;;;;;3.01;100.00;100150.53;5031401;28;20497;-57
2022/12/04 08:11:07;;;;;;;2.50;2.37;;;;;;;3.12;100.00;100150.53;5031679;28;20479;-57
2022/12/04 08:13:33;;;;;;;1.37;1.27;;;;;;;3.09;100.00;100161.06;5031695;28;20572;-56
2022/12/04 08:16:04;;;;;;;2.50;2.23;;;;;;;3.18;100.00;100151.44;5031354;28;20478;-55
2022/12/04 08:18:31;;;;;;;3.90;2.43;;;;;;;3.18;100.00;100161.94;5031059;28;20962;-57
2022/12/04 08:21:06;;;;;;;5.60;2.73;;;;;;;3.28;100.00;100153.13;5031235;28;20447;-56
2022/12/04 08:23:34;;;;;;;3.80;3.50;;;;;;;3.16;100.00;100158.44;5031307;28;20453;-56
2022/12/04 08:26:01;;;;;;;1.30;1.30;;;;;;;3.17;100.00;100151.44;5031277;28;20476;-56
2022/12/04 08:28:28;;;;;;;3.33;1.33;;;;;;;3.26;100.00;100157.53;5030934;28;20460;-56
2022/12/04 08:30:55;;;;;;;1.80;1.67;;;;;;;3.22;100.00;100153.16;5031258;28;20833;-56
2022/12/04 08:33:21;;;;;;;4.40;1.60;;;;;;;3.20;100.00;100154.91;5030382;28;20492;-56
2022/12/04 08:35:47;;;;;;;1.90;1.50;;;;;;;3.37;100.00;100151.38;5031668;28;20487;-53
2022/12/04 08:38:14;;;;;;;9.47;4.77;;;;;;;3.33;100.00;100147.03;5031036;28;20506;-53
2022/12/04 08:40:40;;;;;;;3.23;1.47;;;;;;;3.36;100.00;100144.38;5030758;28;20537;-53
2022/12/04 08:43:06;;;;;;;2.83;1.43;;;;;;;3.51;100.00;100145.22;5030995;28;20463;-53
2022/12/04 08:45:33;;;;;;;3.10;3.00;;;;;;;3.58;100.00;100151.34;5030688;28;21000;-54
2022/12/04 08:47:59;;;;;;;2.93;2.37;;;;;;;3.52;100.00;100152.22;5030610;28;20467;-52
2022/12/04 08:50:26;;;;;;;4.40;1.83;;;;;;;3.46;100.00;100147.00;5030890;28;20482;-52
2022/12/04 08:52:52;;;;;;;7.23;2.33;;;;;;;3.63;100.00;100141.69;5030815;28;20487;-53
2022/12/04 08:55:19;;;;;;;2.60;2.00;;;;;;;3.50;100.00;100138.22;5030635;28;20542;-52
2022/12/04 08:57:45;;;;;;;1.00;0.83;;;;;;;3.53;100.00;100140.84;5029681;28;20460;-53
2022/12/04 09:00:14;;;;;;;17.60;2.63;;;;;;;3.52;100.00;100132.97;5062073;28;20456;-54
2022/12/04 09:02:40;;;;;;;1.20;1.20;;;;;;;3.43;100.00;100148.78;5030062;28;21197;-52
2022/12/04 09:05:07;;;;;;;8.73;2.80;;;;;;;3.55;100.00;100148.72;5025225;28;20555;-52
2022/12/04 09:07:33;;;;;;;0.83;0.83;;;;;;;3.27;100.00;100143.50;5030597;28;20509;-52
2022/12/04 09:09:59;;;;;;;2.60;2.20;;;;;;;3.56;100.00;100138.22;5030462;28;20513;-52
2022/12/04 09:12:26;;;;;;;3.10;2.90;;;;;;;3.43;100.00;100135.63;5030203;28;21276;-52
2022/12/04 09:14:53;;;;;;;2.40;1.57;;;;;;;3.40;100.00;100140.88;5029859;28;20463;-53
2022/12/04 09:17:19;;;;;;;2.10;1.97;;;;;;;3.30;100.00;100136.53;5030255;28;20531;-53
2022/12/04 09:19:46;;;;;;;4.07;3.77;;;;;;;3.48;100.00;100145.25;5030675;28;20459;-56
2022/12/04 09:22:12;;;;;;;2.30;1.50;;;;;;;3.20;100.00;100148.78;5030418;28;20506;-53
2022/12/04 09:24:38;;;;;;;7.77;2.90;;;;;;;3.25;100.00;100145.28;5030393;28;20459;-55
2022/12/04 09:27:05;;;;;;;1.30;1.20;;;;;;;3.49;100.00;100140.88;5029958;28;20479;-53
2022/12/04 09:29:39;;;;;;;9.83;2.43;;;;;;;3.45;100.00;100129.50;5029751;28;20478;-53
2022/12/04 09:32:06;;;;;;;1.97;1.87;;;;;;;3.21;100.00;100140.91;5029586;28;20455;-53
2022/12/04 09:34:32;;;;;;;0.93;0.93;;;;;;;3.07;100.00;100133.94;5029293;28;20498;-54
2022/12/04 09:36:58;;;;;;;2.50;1.80;;;;;;;3.29;100.00;100140.91;5029317;28;20550;-54
2022/12/04 09:39:25;;;;;;;2.93;2.67;;;;;;;3.10;100.00;100142.66;5029182;28;20459;-53
2022/12/04 09:42:01;;;;;;;3.90;1.00;;;;;;;3.16;100.00;100137.44;5029665;28;20466;-56
2022/12/04 09:44:41;;;;;;;0.93;0.93;;;;;;;3.29;100.00;100130.41;5029480;28;20479;-53
2022/12/04 09:47:32;;;;;;;3.10;2.67;;;;;;;3.54;100.00;100131.19;5029211;28;20898;-56
2022/12/04 09:50:13;;;;;;;3.30;0.60;;;;;;;3.43;100.00;100133.00;5029808;28;20452;-55
2022/12/04 09:52:49;;;;;;;2.30;1.47;;;;;;;3.51;100.00;100134.72;5029838;28;20507;-54
2022/12/04 09:55:27;;;;;;;2.13;2.03;;;;;;;3.26;100.00;100126.00;5029082;28;20479;-52
2022/12/04 09:57:58;;;;;;;2.10;2.00;;;;;;;3.47;100.00;100126.84;5025975;28;20455;-55
2022/12/04 10:00:29;;;;;;;3.80;1.60;;;;;;;3.50;100.00;100119.84;5029666;28;20986;-53
2022/12/04 10:03:11;;;;;;;3.03;1.70;;;;;;;3.62;100.00;100121.56;5028389;28;20471;-53
2022/12/04 10:05:44;;;;;;;3.90;1.40;;;;;;;3.54;100.00;100124.19;5029424;28;20479;-55
2022/12/04 10:08:19;;;;;;;1.00;0.73;;;;;;;3.62;100.00;100124.19;5022739;28;20451;-53
2022/12/04 10:10:57;;;;;;;1.17;1.17;;;;;;;3.62;100.00;100121.56;5041451;28;20559;-53
2022/12/04 10:13:41;;;;;;;2.00;1.60;;;;;;;3.54;100.00;100115.44;5024743;28;20514;-53
2022/12/04 10:16:35;;;;;;;2.53;2.13;;;;;;;3.43;100.00;100114.63;5029671;28;20479;-55
2022/12/04 10:19:14;;;;;;;2.10;1.67;;;;;;;3.47;100.00;100118.97;5033584;28;20872;-54
2022/12/04 10:21:53;;;;;;;1.60;1.50;;;;;;;3.36;100.00;100126.88;5029140;28;20933;-55
2022/12/04 10:24:22;;;;;;;1.10;1.10;;;;;;;3.60;100.00;100128.56;5029421;28;20451;-54
2022/12/04 10:26:50;;;;;;;1.10;1.10;;;;;;;3.54;100.00;100128.56;5029083;28;20476;-55
2022/12/04 10:29:25;;;;;;;3.03;1.60;;;;;;;3.26;100.00;100126.00;5029558;28;20949;-54
2022/12/04 10:31:54;;;;;;;1.83;1.73;;;;;;;3.34;100.00;100119.88;5016345;28;20451;-53
2022/12/04 10:34:26;;;;;;;1.10;1.10;;;;;;;3.35;100.00;100109.38;5029027;28;20495;-54
2022/12/04 10:36:58;;;;;;;2.20;2.17;;;;;;;3.48;100.00;100111.09;5029170;28;20498;-55
2022/12/04 10:39:50;;;;;;;1.00;1.00;;;;;;;3.49;100.00;100106.72;5028761;28;20522;-53
2022/12/04 10:42:37;;;;;;;5.63;0.90;;;;;;;3.65;100.00;100092.63;5009528;28;20456;-54
2022/12/04 10:45:05;;;;;;;1.77;1.67;;;;;;;3.77;100.00;100103.09;5029285;28;20497;-54
2022/12/04 10:47:32;;;;;;;1.27;1.20;;;;;;;3.63;100.00;100099.66;5028619;28;20467;-56
2022/12/04 10:50:11;;;;;;;1.27;1.17;;;;;;;3.80;100.00;100096.94;5029314;28;20460;-54
2022/12/04 10:52:38;;;;;;;2.30;2.20;;;;;;;3.75;100.00;100096.09;5029038;28;20452;-54
2022/12/04 10:55:05;;;;;;;2.30;2.20;;;;;;;3.77;100.00;100095.22;5028615;28;20460;-57
2022/12/04 10:57:40;;;;;;;0.93;0.80;;;;;;;3.89;100.00;100101.31;5029318;28;20456;-56
2022/12/04 11:00:28;;;;;;;1.80;1.73;;;;;;;3.76;100.00;100092.59;5028790;28;20491;-55
2022/12/04 11:02:58;;;;;;;1.90;1.23;;;;;;;3.83;100.00;100086.41;5028844;28;20450;-54
2022/12/04 11:05:34;;;;;;;4.17;2.90;;;;;;;3.63;100.00;100075.13;5028322;28;20475;-55
2022/12/04 11:08:03;;;;;;;3.60;2.30;;;;;;;3.72;100.00;100064.59;5029162;28;20447;-53
2022/12/04 11:10:41;;;;;;;1.57;1.47;;;;;;;3.77;100.00;100063.66;5028567;28;20456;-56
2022/12/04 11:13:11;;;;;;;5.73;2.20;;;;;;;3.80;100.00;100065.41;5028780;28;20965;-55
2022/12/04 11:15:49;;;;;;;2.97;2.87;;;;;;;3.69;100.00;100061.94;5028584;28;20498;-57
2022/12/04 11:18:24;;;;;;;1.93;1.60;;;;;;;3.61;100.00;100055.88;5024537;28;21036;-54
2022/12/04 11:20:58;;;;;;;2.67;2.47;;;;;;;3.65;100.00;100061.09;5029165;28;20501;-54
2022/12/04 11:23:26;;;;;;;3.30;0.43;;;;;;;3.76;100.00;100056.66;5033657;28;20524;-54
2022/12/04 11:25:55;;;;;;;3.20;2.10;;;;;;;3.81;100.00;100049.63;5032576;28;20475;-54
2022/12/04 11:28:31;;;;;;;2.90;1.47;;;;;;;3.83;100.00;100058.38;5022331;28;20455;-54
2022/12/04 11:31:20;;;;;;;2.10;2.00;;;;;;;4.02;100.00;100060.91;5032865;28;20451;-55
2022/12/04 11:33:51;;;;;;;2.27;1.53;;;;;;;3.90;100.00;100064.47;5032598;28;20545;-53
2022/12/04 11:36:26;;;;;;;1.73;1.63;;;;;;;3.93;100.00;100063.59;5031993;28;20497;-54
2022/12/04 11:39:03;;;;;;;1.37;1.37;;;;;;;3.97;100.00;100063.56;5023590;28;20451;-54
2022/12/04 11:41:31;;;;;;;2.20;2.10;;;;;;;3.96;100.00;100061.81;5028238;28;20827;-54
2022/12/04 11:43:58;;;;;;;1.53;0.60;;;;;;;3.98;100.00;100052.19;5032339;28;20460;-57
2022/12/04 11:46:29;;;;;;;2.50;2.37;;;;;;;4.24;100.00;100056.38;5032365;28;20478;-54
2022/12/04 11:48:56;;;;;;;2.30;2.10;;;;;;;4.02;100.00;100056.53;5031968;28;20461;-55
2022/12/04 11:51:37;;;;;;;8.90;2.90;;;;;;;3.95;100.00;100051.31;5031066;28;20455;-54